Time;durP1;ratioP1;P1;durP2;ratioP2;P2;SDS_P1;SDS_P2;PMS_P1;PMS_P2;Temp;Humidity;BMP_temperature;BMP_pressure;BME280_temperature;BME280_humidity;BME280_pressure;Samples;Min_cycle;Max_cycle;Signal;HPM_P1;HPM_P2
2023/07/24 00:02:24;;;;;;;6.00;3.03;;;;;;;16.44;100.00;100360.75;4934781;29;20031;-90
2023/07/24 00:04:49;;;;;;;5.27;3.47;;;;;;;16.41;100.00;100357.88;4935296;29;20392;-91
2023/07/24 00:07:14;;;;;;;5.95;3.90;;;;;;;16.54;100.00;100367.03;4933497;29;20031;-90
2023/07/24 00:09:40;;;;;;;6.30;3.60;;;;;;;16.52;100.00;100370.06;4938676;29;20067;-88
2023/07/24 00:12:06;;;;;;;7.97;3.77;;;;;;;16.50;100.00;100362.22;4944695;29;20488;-90
2023/07/24 00:14:31;;;;;;;4.63;3.60;;;;;;;16.54;100.00;100367.81;4935349;28;20023;-89
2023/07/24 00:16:57;;;;;;;9.63;4.10;;;;;;;16.53;100.00;100363.50;4939752;29;20051;-90
2023/07/24 00:19:22;;;;;;;9.27;3.97;;;;;;;16.49;100.00;100349.03;4941653;29;20028;-90
2023/07/24 00:21:47;;;;;;;5.40;3.77;;;;;;;16.55;100.00;100352.41;4935007;29;20476;-89
2023/07/24 00:24:12;;;;;;;5.47;3.58;;;;;;;16.45;100.00;100337.22;4934712;29;20035;-90
2023/07/24 00:26:38;;;;;;;4.63;3.63;;;;;;;16.48;100.00;100345.50;4934229;29;20030;-89
2023/07/24 00:29:03;;;;;;;8.30;4.13;;;;;;;16.56;100.00;100343.97;4935101;29;20027;-90
2023/07/24 00:31:28;;;;;;;6.17;4.17;;;;;;;16.60;100.00;100349.56;4934571;29;20031;-89
2023/07/24 00:33:54;;;;;;;8.87;4.07;;;;;;;16.55;100.00;100342.38;4934487;29;20090;-89
2023/07/24 00:36:19;;;;;;;10.87;5.13;;;;;;;16.55;100.00;100330.75;4933918;29;20066;-90
2023/07/24 00:38:44;;;;;;;7.72;4.18;;;;;;;16.49;100.00;100325.47;4934457;29;20027;-89
2023/07/24 00:41:10;;;;;;;7.60;4.07;;;;;;;16.44;100.00;100322.91;4934468;29;20480;-89
2023/07/24 00:43:35;;;;;;;8.67;4.30;;;;;;;16.40;100.00;100307.59;4934491;29;20104;-90
2023/07/24 00:46:02;;;;;;;7.67;4.27;;;;;;;16.35;100.00;100309.34;4934079;29;20075;-90
2023/07/24 00:48:28;;;;;;;6.38;4.13;;;;;;;16.50;100.00;100326.28;4934718;29;20027;-90
2023/07/24 00:50:53;;;;;;;11.05;4.90;;;;;;;16.44;100.00;100320.19;4934319;29;20403;-90
2023/07/24 00:53:19;;;;;;;8.93;4.67;;;;;;;16.37;100.00;100303.63;4934580;29;20080;-90
2023/07/24 00:55:45;;;;;;;6.90;4.65;;;;;;;16.49;100.00;100322.00;4933807;29;20116;-91
2023/07/24 00:58:11;;;;;;;10.40;4.70;;;;;;;16.48;100.00;100321.19;4935013;29;20058;-91
2023/07/24 01:00:40;;;;;;;8.07;4.37;;;;;;;16.49;100.00;100317.38;4934928;29;20035;-90
2023/07/24 01:03:06;;;;;;;8.57;4.70;;;;;;;16.41;100.00;100303.81;4935356;29;20280;-90
2023/07/24 01:05:31;;;;;;;8.35;4.65;;;;;;;16.50;100.00;100318.19;4934358;29;20024;-90
2023/07/24 01:07:57;;;;;;;8.40;4.50;;;;;;;16.48;100.00;100310.34;4934540;29;20038;-91
2023/07/24 01:10:22;;;;;;;10.93;4.97;;;;;;;16.33;100.00;100286.44;4932329;29;20086;-91
2023/07/24 01:12:58;;;;;;;13.13;4.67;;;;;;;16.50;100.00;100305.44;4934593;29;20404;-90
2023/07/24 01:15:35;;;;;;;9.23;5.32;;;;;;;16.49;100.00;100301.16;4933978;29;20546;-90
2023/07/24 01:18:06;;;;;;;9.82;4.55;;;;;;;16.48;100.00;100296.84;4933894;29;20032;-90
2023/07/24 01:20:35;;;;;;;11.57;5.00;;;;;;;16.49;100.00;100294.94;4934672;29;20062;-91
2023/07/24 01:23:28;;;;;;;12.20;5.20;;;;;;;16.48;100.00;100291.44;4936395;29;20024;-90
2023/07/24 01:25:56;;;;;;;9.13;4.73;;;;;;;16.39;100.00;100287.09;4933977;29;20283;-91
2023/07/24 01:28:22;;;;;;;8.57;5.10;;;;;;;16.45;100.00;100291.25;4935536;29;20036;-90
2023/07/24 01:30:47;;;;;;;9.88;5.40;;;;;;;16.39;100.00;100274.38;4945331;29;20007;-89
2023/07/24 01:33:13;;;;;;;9.83;5.07;;;;;;;16.48;100.00;100283.31;4946653;29;20031;-89
2023/07/24 01:35:40;;;;;;;9.32;5.30;;;;;;;16.49;100.00;100282.22;4934261;28;20027;-90
2023/07/24 01:38:06;;;;;;;11.47;5.87;;;;;;;16.43;100.00;100261.03;4950992;29;20031;-90
2023/07/24 01:40:32;;;;;;;11.00;5.47;;;;;;;16.47;100.00;100276.31;4935034;29;20287;-90
2023/07/24 01:42:59;;;;;;;22.70;6.78;;;;;;;16.58;100.00;100286.88;4933416;29;20412;-90
2023/07/24 01:45:24;;;;;;;31.95;7.07;;;;;;;16.57;100.00;100286.06;4935552;29;20023;-90
2023/07/24 01:47:50;;;;;;;17.97;6.63;;;;;;;16.62;100.00;100294.03;4936609;29;20062;-90
2023/07/24 01:50:15;;;;;;;18.90;7.00;;;;;;;16.55;100.00;100268.56;4937137;29;20110;-92
2023/07/24 01:52:40;;;;;;;14.80;6.47;;;;;;;16.57;100.00;100260.94;4936657;29;20042;-90
2023/07/24 01:55:06;;;;;;;17.38;6.55;;;;;;;16.60;100.00;100263.81;4936678;29;20035;-91
2023/07/24 01:57:32;;;;;;;14.33;6.50;;;;;;;16.55;100.00;100246.94;4934824;29;20019;-91
2023/07/24 01:59:57;;;;;;;13.17;6.27;;;;;;;16.59;100.00;100250.63;4936980;29;20055;-90
2023/07/24 02:02:22;;;;;;;11.75;5.95;;;;;;;16.53;100.00;100249.16;4936993;29;20492;-91
2023/07/24 02:04:47;;;;;;;11.33;6.07;;;;;;;16.60;100.00;100257.63;4938014;29;20501;-91
2023/07/24 02:07:13;;;;;;;12.97;5.97;;;;;;;16.53;100.00;100232.91;4941037;29;20028;-92
2023/07/24 02:09:38;;;;;;;12.27;6.27;;;;;;;16.51;100.00;100230.53;4941381;29;20078;-91
2023/07/24 02:12:04;;;;;;;12.53;6.33;;;;;;;16.52;100.00;100228.63;4942038;29;20029;-91
2023/07/24 02:14:29;;;;;;;12.95;6.60;;;;;;;16.46;100.00;100214.44;4942583;29;20078;-91
2023/07/24 02:16:55;;;;;;;11.50;6.30;;;;;;;16.50;100.00;100218.13;4936361;29;20030;-91
2023/07/24 02:19:20;;;;;;;12.53;6.37;;;;;;;16.50;100.00;100227.03;4936502;29;20064;-91
2023/07/24 02:21:45;;;;;;;12.55;5.97;;;;;;;16.46;100.00;100209.03;4936162;29;20807;-91
2023/07/24 02:24:11;;;;;;;11.40;6.37;;;;;;;16.51;100.00;100222.44;4935917;29;20024;-91
2023/07/24 02:26:36;;;;;;;13.17;6.33;;;;;;;16.54;100.00;100218.28;4935739;29;20107;-91
2023/07/24 02:29:03;;;;;;;13.27;7.17;;;;;;;16.48;100.00;100210.31;4936439;29;20090;-91
2023/07/24 02:31:28;;;;;;;12.50;6.90;;;;;;;16.59;100.00;100234.38;4936647;29;20043;-92
2023/07/24 02:33:53;;;;;;;13.93;7.97;;;;;;;16.47;100.00;100210.63;4936068;29;20036;-91
2023/07/24 02:36:19;;;;;;;18.17;8.03;;;;;;;16.59;100.00;100228.97;4935655;29;20043;-92
2023/07/24 02:38:45;;;;;;;14.68;8.98;;;;;;;16.59;100.00;100228.97;4935812;29;20059;-92
2023/07/24 02:41:10;;;;;;;15.77;9.07;;;;;;;16.51;100.00;100211.63;4936673;29;20031;-91
2023/07/24 02:43:36;;;;;;;19.60;9.80;;;;;;;16.52;100.00;100213.22;4935796;29;20031;-91
2023/07/24 02:46:02;;;;;;;17.47;9.97;;;;;;;16.57;100.00;100223.06;4934188;29;20284;-92
2023/07/24 02:48:28;;;;;;;18.55;9.57;;;;;;;16.49;100.00;100217.31;4935048;29;20044;-92
2023/07/24 02:50:53;;;;;;;21.40;9.60;;;;;;;16.43;100.00;100205.03;4947489;29;20110;-90
2023/07/24 02:53:19;;;;;;;33.13;9.47;;;;;;;16.56;100.00;100218.78;4945793;29;20040;-92
2023/07/24 02:55:45;;;;;;;18.27;8.23;;;;;;;16.46;100.00;100200.94;4935368;29;20647;-90
2023/07/24 02:58:12;;;;;;;24.37;8.83;;;;;;;16.53;100.00;100209.38;4956451;29;20024;-91
2023/07/24 03:00:38;;;;;;;23.95;7.90;;;;;;;16.54;100.00;100219.06;4940131;29;20035;-90
2023/07/24 03:03:03;;;;;;;16.47;7.63;;;;;;;16.53;100.00;100219.41;4935743;29;20020;-91
2023/07/24 03:05:29;;;;;;;11.27;7.00;;;;;;;16.36;100.00;100210.13;4935200;29;20448;-90
2023/07/24 03:07:54;;;;;;;15.13;6.30;;;;;;;16.49;100.00;100236.25;4934931;29;20032;-91
2023/07/24 03:10:19;;;;;;;11.97;6.33;;;;;;;16.40;100.00;100223.78;4935466;29;20032;-91
2023/07/24 03:12:45;;;;;;;11.97;4.70;;;;;;;16.24;100.00;100218.81;4935473;29;20020;-90
2023/07/24 03:15:10;;;;;;;7.37;4.27;;;;;;;16.11;100.00;100203.47;4935364;29;20620;-90
2023/07/24 03:17:35;;;;;;;10.60;3.90;;;;;;;15.97;100.00;100192.75;4934716;29;20028;-90
2023/07/24 03:20:13;;;;;;;6.07;3.90;;;;;;;15.95;100.00;100186.84;4935278;29;20040;-90
2023/07/24 03:22:40;;;;;;;8.73;4.30;;;;;;;15.89;100.00;100195.09;4935202;29;20034;-91
2023/07/24 03:25:06;;;;;;;16.60;4.53;;;;;;;15.96;100.00;100221.69;4934923;29;20068;-90
2023/07/24 03:27:31;;;;;;;33.83;5.07;;;;;;;15.82;100.00;100202.00;4934616;29;20395;-90
2023/07/24 03:29:57;;;;;;;12.87;4.87;;;;;;;15.88;100.00;100220.53;4934934;29;20844;-91
2023/07/24 03:32:22;;;;;;;18.03;4.43;;;;;;;15.87;100.00;100216.22;4935157;29;20592;-90
2023/07/24 03:34:47;;;;;;;7.87;4.27;;;;;;;15.80;100.00;100198.81;4934837;29;20563;-91
2023/07/24 03:37:13;;;;;;;7.70;4.23;;;;;;;15.78;100.00;100193.72;4934270;29;20038;-91
2023/07/24 03:39:38;;;;;;;5.27;4.20;;;;;;;15.69;100.00;100195.59;4934279;29;20050;-91
2023/07/24 03:42:04;;;;;;;5.53;4.35;;;;;;;15.79;100.00;100195.31;4934663;29;20024;-92
2023/07/24 03:44:29;;;;;;;6.50;4.20;;;;;;;15.73;100.00;100189.25;4934378;29;20795;-91
2023/07/24 03:46:54;;;;;;;6.43;4.37;;;;;;;15.75;100.00;100192.44;4934166;29;20123;-92
2023/07/24 03:49:20;;;;;;;5.20;3.97;;;;;;;15.76;100.00;100187.81;4934681;29;20031;-92
2023/07/24 03:51:45;;;;;;;7.22;4.35;;;;;;;15.73;100.00;100191.16;4934645;29;20020;-91
2023/07/24 03:54:10;;;;;;;5.63;4.40;;;;;;;15.79;100.00;100199.94;4934707;29;20027;-91
2023/07/24 03:56:36;;;;;;;5.93;4.17;;;;;;;15.77;100.00;100196.75;4934341;29;20034;-91
2023/07/24 03:59:01;;;;;;;8.53;4.10;;;;;;;15.67;100.00;100181.59;4934551;29;20047;-92
2023/07/24 04:01:26;;;;;;;7.97;4.57;;;;;;;15.77;100.00;100194.81;4934403;29;20063;-91
2023/07/24 04:03:52;;;;;;;6.97;4.50;;;;;;;15.73;100.00;100191.16;4934380;29;20043;-91
2023/07/24 04:06:18;;;;;;;9.67;4.37;;;;;;;15.77;100.00;100208.34;4933797;29;20028;-92
2023/07/24 04:08:43;;;;;;;5.90;4.60;;;;;;;15.57;100.00;100182.63;4933692;29;20494;-91
2023/07/24 04:11:08;;;;;;;6.77;4.53;;;;;;;15.63;100.00;100194.88;4944740;29;20075;-90
2023/07/24 04:13:34;;;;;;;7.37;4.60;;;;;;;15.65;100.00;100203.47;4944730;29;20027;-91
2023/07/24 04:15:59;;;;;;;6.67;4.67;;;;;;;15.63;100.00;100204.91;4934215;29;20019;-92
2023/07/24 04:18:24;;;;;;;10.13;5.50;;;;;;;15.68;100.00;100207.50;4943203;29;20027;-91
2023/07/24 04:20:50;;;;;;;15.50;5.25;;;;;;;15.72;100.00;100219.25;4935352;29;20046;-91
2023/07/24 04:23:15;;;;;;;9.87;5.67;;;;;;;15.67;100.00;100211.28;4934628;29;20035;-90
2023/07/24 04:25:40;;;;;;;11.43;5.70;;;;;;;15.69;100.00;100209.88;4933472;29;20044;-91
2023/07/24 04:28:06;;;;;;;10.83;5.50;;;;;;;15.78;100.00;100220.72;4934327;29;20142;-91
2023/07/24 04:30:32;;;;;;;12.37;5.87;;;;;;;15.75;100.00;100215.94;4934098;29;20024;-90
2023/07/24 04:32:58;;;;;;;13.93;6.00;;;;;;;15.67;100.00;100206.69;4934839;29;20031;-91
2023/07/24 04:35:23;;;;;;;11.63;5.37;;;;;;;15.69;100.00;100204.47;4934378;29;20024;-91
2023/07/24 04:37:48;;;;;;;17.95;5.80;;;;;;;15.66;100.00;100204.28;4933431;29;20039;-90
2023/07/24 04:40:14;;;;;;;13.20;5.73;;;;;;;15.77;100.00;100227.25;4933724;29;20086;-91
2023/07/24 04:42:39;;;;;;;38.03;5.70;;;;;;;15.67;100.00;100208.59;4934665;29;20475;-90
2023/07/24 04:45:05;;;;;;;13.93;5.53;;;;;;;15.81;100.00;100235.53;4934564;29;20377;-90
2023/07/24 04:47:30;;;;;;;10.10;5.93;;;;;;;15.72;100.00;100219.25;4933627;29;20071;-91
2023/07/24 04:49:55;;;;;;;9.07;5.23;;;;;;;15.81;100.00;100230.94;4933696;29;20079;-91
2023/07/24 04:52:21;;;;;;;8.17;5.60;;;;;;;15.70;100.00;100195.28;4933591;29;20369;-91
2023/07/24 04:54:46;;;;;;;12.13;5.60;;;;;;;15.81;100.00;100222.81;4933628;29;20058;-91
2023/07/24 04:57:11;;;;;;;9.15;5.57;;;;;;;15.79;100.00;100224.25;4933603;29;20438;-92
2023/07/24 04:59:37;;;;;;;7.37;5.10;;;;;;;15.76;100.00;100214.84;4933710;29;20032;-92
2023/07/24 05:02:02;;;;;;;7.10;5.07;;;;;;;15.74;100.00;100222.44;4934011;29;20447;-92
2023/07/24 05:04:27;;;;;;;9.27;5.70;;;;;;;15.66;100.00;100204.28;4933408;29;20540;-91
2023/07/24 05:06:53;;;;;;;7.85;5.43;;;;;;;15.60;100.00;100204.41;4933622;29;20027;-92
2023/07/24 05:09:19;;;;;;;6.07;4.90;;;;;;;15.63;100.00;100210.31;4933706;29;20059;-91
2023/07/24 05:11:45;;;;;;;9.15;5.38;;;;;;;15.71;100.00;100225.75;4933708;29;20107;-91
2023/07/24 05:14:11;;;;;;;11.03;6.13;;;;;;;15.62;100.00;100209.50;4933513;29;20111;-91
2023/07/24 05:16:36;;;;;;;7.13;5.33;;;;;;;15.82;100.00;100223.59;4933299;29;20101;-91
2023/07/24 05:19:01;;;;;;;8.73;5.97;;;;;;;15.74;100.00;100223.25;4935759;29;20059;-91
2023/07/24 05:21:26;;;;;;;7.73;5.80;;;;;;;15.78;100.00;100228.84;4937682;29;20031;-91
2023/07/24 05:23:52;;;;;;;8.80;5.97;;;;;;;15.68;100.00;100212.91;4937035;29;20103;-91
2023/07/24 05:26:17;;;;;;;11.03;5.83;;;;;;;15.64;100.00;100220.78;4936962;29;20031;-91
2023/07/24 05:28:42;;;;;;;10.80;7.13;;;;;;;15.62;100.00;100216.81;4937137;29;20513;-91
2023/07/24 05:31:08;;;;;;;8.80;6.57;;;;;;;15.78;100.00;100245.03;4946150;29;20039;-92
2023/07/24 05:33:33;;;;;;;11.40;7.72;;;;;;;15.73;100.00;100239.75;4944694;29;20031;-92
2023/07/24 05:36:03;;;;;;;10.13;7.20;;;;;;;15.74;100.00;100244.06;4937190;29;20107;-92
2023/07/24 05:38:28;;;;;;;11.38;6.90;;;;;;;15.79;100.00;100238.53;4948139;29;20036;-90
2023/07/24 05:40:58;;;;;;;13.20;7.70;;;;;;;15.84;100.00;100240.31;4939680;29;20023;-91
2023/07/24 05:43:24;;;;;;;12.45;8.40;;;;;;;16.00;100.00;100241.56;4937420;29;20098;-91
2023/07/24 05:45:51;;;;;;;12.70;8.43;;;;;;;16.14;100.00;100249.59;4937446;29;20468;-91
2023/07/24 05:48:16;;;;;;;13.30;9.27;;;;;;;15.94;100.00;100220.38;4938103;29;20031;-90
2023/07/24 05:50:42;;;;;;;12.27;8.20;;;;;;;16.10;100.00;100248.59;4937439;29;20058;-92
2023/07/24 05:53:07;;;;;;;13.43;8.67;;;;;;;16.13;100.00;100250.69;4936609;29;20024;-91
2023/07/24 05:55:32;;;;;;;14.50;9.20;;;;;;;16.12;100.00;100248.31;4936989;29;20107;-90
2023/07/24 05:57:58;;;;;;;17.53;9.63;;;;;;;16.15;100.00;100250.41;4936784;29;20043;-91
2023/07/24 06:00:23;;;;;;;14.30;9.60;;;;;;;16.11;100.00;100265.63;4937072;29;20042;-90
2023/07/24 06:02:48;;;;;;;13.30;9.33;;;;;;;16.14;100.00;100265.03;4936706;29;20516;-91
2023/07/24 06:05:14;;;;;;;14.83;9.40;;;;;;;16.14;100.00;100263.09;4937109;29;20039;-90
2023/07/24 06:07:39;;;;;;;12.90;8.33;;;;;;;16.26;100.00;100251.72;4936346;29;20028;-90
2023/07/24 06:10:04;;;;;;;13.27;9.20;;;;;;;16.25;100.00;100242.03;4936842;29;20408;-90
2023/07/24 06:12:30;;;;;;;15.10;9.07;;;;;;;16.38;100.00;100259.28;4936678;29;20016;-90
2023/07/24 06:14:55;;;;;;;15.17;9.27;;;;;;;16.34;100.00;100250.19;4935307;29;20024;-90
2023/07/24 06:17:20;;;;;;;14.43;9.53;;;;;;;16.32;100.00;100253.19;4935680;29;20501;-90
2023/07/24 06:19:46;;;;;;;13.00;8.47;;;;;;;16.53;100.00;100270.78;4936512;29;20032;-89
2023/07/24 06:22:11;;;;;;;16.60;8.97;;;;;;;16.62;100.00;100255.38;4936161;29;20034;-90
2023/07/24 06:24:37;;;;;;;14.55;9.27;;;;;;;16.77;100.00;100271.19;4936235;29;20107;-90
2023/07/24 06:27:06;;;;;;;15.47;8.83;;;;;;;16.79;100.00;100265.47;4934393;29;20042;-89
2023/07/24 06:29:31;;;;;;;14.02;8.90;;;;;;;16.81;100.00;100257.84;4936329;29;20112;-90
2023/07/24 06:31:57;;;;;;;13.45;8.07;;;;;;;16.92;100.00;100264.53;4935204;29;20118;-90
2023/07/24 06:34:22;;;;;;;12.93;8.43;;;;;;;17.23;100.00;100271.81;4936603;29;20032;-89
2023/07/24 06:36:47;;;;;;;11.97;7.80;;;;;;;17.10;100.00;100267.31;4935393;29;20028;-90
2023/07/24 06:39:13;;;;;;;10.80;7.80;;;;;;;17.28;100.00;100270.06;4936259;29;20067;-89
2023/07/24 06:41:38;;;;;;;9.00;7.17;;;;;;;17.38;100.00;100275.19;4939606;29;20028;-90
2023/07/24 06:44:03;;;;;;;11.93;7.03;;;;;;;17.38;100.00;100275.19;4936676;29;20027;-90
2023/07/24 06:46:29;;;;;;;9.03;6.77;;;;;;;17.45;100.00;100272.00;4935227;29;20055;-89
2023/07/24 06:48:54;;;;;;;9.57;6.40;;;;;;;17.25;100.00;100268.78;4936332;29;20078;-91
2023/07/24 06:51:19;;;;;;;7.67;5.97;;;;;;;17.21;100.00;100276.75;4940162;29;20114;-91
2023/07/24 06:53:45;;;;;;;8.40;6.53;;;;;;;17.10;100.00;100273.53;4945406;29;20030;-91
2023/07/24 06:56:10;;;;;;;6.83;5.70;;;;;;;17.07;100.00;100259.84;4935779;29;20051;-92
2023/07/24 06:58:35;;;;;;;10.07;5.93;;;;;;;16.95;100.00;100242.31;4952503;29;20307;-91
2023/07/24 07:01:06;;;;;;;10.93;6.37;;;;;;;17.05;100.00;100265.56;4945072;29;20032;-91
2023/07/24 07:03:31;;;;;;;10.32;6.50;;;;;;;17.00;100.00;100265.72;4936364;29;20024;-91
2023/07/24 07:06:00;;;;;;;8.97;6.60;;;;;;;17.08;100.00;100273.06;4935407;29;20527;-91
2023/07/24 07:08:25;;;;;;;10.57;7.20;;;;;;;17.14;100.00;100267.50;4935187;29;20110;-91
2023/07/24 07:10:56;;;;;;;10.03;7.37;;;;;;;17.19;100.00;100264.63;4935679;29;20467;-91
2023/07/24 07:13:21;;;;;;;8.20;6.68;;;;;;;17.13;100.00;100277.53;4936055;29;20099;-91
2023/07/24 07:15:46;;;;;;;9.27;6.40;;;;;;;17.10;100.00;100261.91;4934847;29;20051;-91
2023/07/24 07:18:12;;;;;;;10.87;7.17;;;;;;;17.20;100.00;100274.34;4935599;29;20036;-91
2023/07/24 07:20:37;;;;;;;10.33;6.60;;;;;;;17.13;100.00;100276.75;4935184;29;20058;-91
2023/07/24 07:23:02;;;;;;;9.90;6.50;;;;;;;17.04;100.00;100276.72;4935295;29;20391;-92
2023/07/24 07:25:27;;;;;;;7.47;5.57;;;;;;;16.82;100.00;100262.13;4934917;29;20692;-90
2023/07/24 07:27:53;;;;;;;7.30;4.63;;;;;;;16.68;100.00;100273.06;4935005;29;20102;-90
2023/07/24 07:30:18;;;;;;;6.17;4.83;;;;;;;16.69;100.00;100260.34;4935227;29;20031;-90
2023/07/24 07:32:43;;;;;;;6.50;4.70;;;;;;;16.66;100.00;100256.34;4935705;29;20118;-90
2023/07/24 07:35:09;;;;;;;4.63;3.73;;;;;;;16.62;100.00;100249.97;4937493;29;20020;-90
2023/07/24 07:37:34;;;;;;;5.03;4.17;;;;;;;16.75;100.00;100262.59;4939154;29;20023;-90
2023/07/24 07:39:59;;;;;;;5.53;3.97;;;;;;;16.75;100.00;100261.78;4938814;29;20087;-91
2023/07/24 07:42:25;;;;;;;5.47;4.33;;;;;;;16.99;100.00;100263.31;4939046;29;20130;-91
2023/07/24 07:44:50;;;;;;;7.33;4.67;;;;;;;17.30;100.00;100275.94;4936986;29;20484;-90
2023/07/24 07:47:15;;;;;;;6.27;4.60;;;;;;;17.44;100.00;100248.72;4935196;29;20507;-90
2023/07/24 07:49:41;;;;;;;5.10;4.47;;;;;;;17.79;100.00;100268.50;4935019;29;20055;-91
2023/07/24 07:52:07;;;;;;;6.18;4.43;;;;;;;17.76;100.00;100252.06;4935280;29;20028;-90
2023/07/24 07:54:32;;;;;;;6.80;4.50;;;;;;;17.96;100.00;100256.81;4934343;29;20028;-90
2023/07/24 07:56:57;;;;;;;5.47;4.07;;;;;;;17.87;100.00;100250.63;4934361;29;20284;-91
2023/07/24 07:59:23;;;;;;;6.87;4.20;;;;;;;18.10;100.00;100253.16;4934268;29;20032;-91
2023/07/24 08:01:48;;;;;;;5.90;5.00;;;;;;;18.45;100.00;100264.69;4933624;29;20027;-90
2023/07/24 08:04:13;;;;;;;7.53;4.77;;;;;;;18.61;100.00;100254.13;4934624;29;20431;-90
2023/07/24 08:06:39;;;;;;;5.20;4.10;;;;;;;18.45;100.00;100261.19;4934335;29;20062;-91
2023/07/24 08:09:04;;;;;;;5.80;3.73;;;;;;;18.55;100.00;100277.09;4934436;29;20122;-92
2023/07/24 08:11:29;;;;;;;4.70;4.25;;;;;;;18.49;100.00;100274.91;4939839;29;20034;-90
2023/07/24 08:13:55;;;;;;;6.67;4.10;;;;;;;18.31;100.00;100258.69;4951293;29;20059;-89
2023/07/24 08:16:20;;;;;;;7.53;4.70;;;;;;;18.30;100.00;100267.94;4934644;29;20059;-89
2023/07/24 08:18:47;;;;;;;7.03;4.97;;;;;;;18.11;100.00;100265.59;4945407;29;20028;-89
2023/07/24 08:21:13;;;;;;;5.75;4.47;;;;;;;18.02;100.00;100249.34;4944267;29;20047;-90
2023/07/24 08:23:39;;;;;;;6.35;4.20;;;;;;;18.13;100.00;100245.19;4933776;29;20027;-90
2023/07/24 08:26:04;;;;;;;7.00;5.00;;;;;;;18.06;100.00;100222.41;4933860;29;20023;-89
2023/07/24 08:28:30;;;;;;;5.38;4.65;;;;;;;18.58;100.00;100252.03;4933555;29;20028;-89
2023/07/24 08:30:59;;;;;;;5.57;4.67;;;;;;;19.03;100.00;100268.91;4933997;29;20090;-90
2023/07/24 08:33:24;;;;;;;7.82;4.60;;;;;;;18.74;100.00;100243.34;4933807;29;20034;-89
2023/07/24 08:36:08;;;;;;;8.50;4.80;;;;;;;18.75;100.00;100270.16;4933521;29;20016;-89
2023/07/24 08:38:34;;;;;;;6.45;5.40;;;;;;;18.82;100.00;100269.63;4933140;29;20027;-90
2023/07/24 08:41:00;;;;;;;9.57;6.00;;;;;;;18.78;100.00;100257.88;4934023;29;20020;-90
2023/07/24 08:43:26;;;;;;;7.78;6.18;;;;;;;18.90;100.00;100251.72;4933639;29;20487;-90
2023/07/24 08:45:52;;;;;;;10.20;6.15;;;;;;;18.91;100.00;100254.09;4933552;29;20046;-90
2023/07/24 08:48:19;;;;;;;8.60;6.87;;;;;;;19.16;100.00;100273.31;4933939;29;20024;-91
2023/07/24 08:50:47;;;;;;;9.30;6.70;;;;;;;19.02;100.00;100257.28;4934003;29;20055;-90
2023/07/24 08:53:13;;;;;;;7.35;5.80;;;;;;;19.05;100.00;100264.75;4935211;29;20123;-90
2023/07/24 08:55:39;;;;;;;7.57;5.88;;;;;;;19.10;100.00;100268.38;4940112;29;20126;-91
2023/07/24 08:58:06;;;;;;;10.93;6.75;;;;;;;19.09;100.00;100254.03;4940050;29;20468;-90
2023/07/24 09:00:32;;;;;;;9.27;6.30;;;;;;;19.42;100.00;100253.31;4940449;29;20107;-91
2023/07/24 09:02:57;;;;;;;7.22;5.78;;;;;;;19.81;100.00;100250.44;4940012;29;20114;-90
2023/07/24 09:05:23;;;;;;;7.93;6.07;;;;;;;20.09;100.00;100256.06;4940523;29;20103;-90
2023/07/24 09:07:49;;;;;;;8.43;6.30;;;;;;;20.43;100.00;100243.22;4939606;29;20027;-90
2023/07/24 09:10:14;;;;;;;8.60;6.20;;;;;;;20.92;100.00;100240.84;4940447;29;20028;-92
2023/07/24 09:12:41;;;;;;;6.77;5.73;;;;;;;21.29;100.00;100238.84;4938231;28;20056;-89
2023/07/24 09:15:07;;;;;;;5.90;5.18;;;;;;;21.22;100.00;100219.56;4940330;29;20028;-90
2023/07/24 09:17:32;;;;;;;5.93;5.30;;;;;;;21.03;100.00;100225.63;4939273;29;20360;-90
2023/07/24 09:19:58;;;;;;;6.77;5.50;;;;;;;20.61;100.00;100182.31;4939959;29;20786;-89
2023/07/24 09:22:26;;;;;;;5.87;5.27;;;;;;;20.66;100.00;100215.53;4939468;29;20106;-91
2023/07/24 09:24:54;;;;;;;5.95;5.35;;;;;;;20.91;100.00;100210.09;4939837;29;20114;-90
2023/07/24 09:27:20;;;;;;;6.68;5.50;;;;;;;21.01;100.00;100200.69;4939257;29;20027;-91
2023/07/24 09:29:46;;;;;;;6.32;5.70;;;;;;;21.44;100.00;100214.72;4940573;29;20038;-89
2023/07/24 09:32:25;;;;;;;7.27;5.27;;;;;;;21.00;100.00;100180.81;4944580;29;20027;-90
2023/07/24 09:34:51;;;;;;;6.82;5.10;;;;;;;20.94;100.00;100206.72;4947689;29;20016;-91
2023/07/24 09:37:33;;;;;;;6.22;5.38;;;;;;;20.79;100.00;100201.97;4939049;29;20099;-88
2023/07/24 09:39:58;;;;;;;5.78;5.13;;;;;;;20.49;100.00;100194.00;4948383;29;20166;-89
2023/07/24 09:42:35;;;;;;;5.93;5.27;;;;;;;20.68;100.00;100196.16;4939568;29;20460;-90
2023/07/24 09:45:02;;;;;;;5.05;4.60;;;;;;;20.67;100.00;100191.84;4938329;29;20028;-90
2023/07/24 09:47:28;;;;;;;5.30;4.80;;;;;;;20.61;100.00;100177.69;4939415;29;20030;-89
2023/07/24 09:49:53;;;;;;;4.68;4.28;;;;;;;20.52;100.00;100171.56;4939879;29;20384;-90
2023/07/24 09:52:20;;;;;;;3.43;3.13;;;;;;;20.33;100.00;100159.31;4940182;29;20083;-89
2023/07/24 09:55:10;;;;;;;4.45;3.60;;;;;;;20.05;100.00;100135.53;4939490;29;20043;-90
2023/07/24 09:57:35;;;;;;;4.13;3.58;;;;;;;20.12;100.00;100157.50;4939777;29;20051;-90
2023/07/24 10:00:01;;;;;;;4.03;3.70;;;;;;;20.09;100.00;100162.84;4940285;29;20110;-89
2023/07/24 10:02:28;;;;;;;4.18;3.30;;;;;;;19.90;100.00;100166.88;4940214;29;20027;-89
2023/07/24 10:04:54;;;;;;;3.20;2.90;;;;;;;19.69;100.00;100150.63;4937769;29;20582;-89
2023/07/24 10:07:22;;;;;;;3.50;3.20;;;;;;;19.55;100.00;100152.84;4936038;29;20111;-90
2023/07/24 10:09:49;;;;;;;3.45;3.00;;;;;;;19.45;100.00;100152.13;4934721;29;20059;-89
2023/07/24 10:12:17;;;;;;;3.80;2.90;;;;;;;19.61;100.00;100171.31;4935144;29;20028;-89
2023/07/24 10:14:44;;;;;;;3.83;2.87;;;;;;;19.60;100.00;100177.09;4935782;29;20283;-90
2023/07/24 10:17:09;;;;;;;3.80;3.05;;;;;;;19.57;100.00;100175.03;4935903;29;20031;-89
2023/07/24 10:19:37;;;;;;;4.87;3.23;;;;;;;19.56;100.00;100187.84;4936038;29;20119;-90
2023/07/24 10:22:03;;;;;;;3.27;2.97;;;;;;;19.55;100.00;100204.44;4936267;29;20712;-89
2023/07/24 10:24:29;;;;;;;3.30;3.00;;;;;;;19.45;100.00;100203.75;4935512;29;20032;-90
2023/07/24 10:26:56;;;;;;;3.50;3.20;;;;;;;19.20;100.00;100187.34;4935951;29;20047;-90
2023/07/24 10:29:24;;;;;;;4.32;3.40;;;;;;;19.16;100.00;100191.06;4936332;29;20106;-89
2023/07/24 10:31:54;;;;;;;6.07;3.70;;;;;;;19.29;100.00;100222.56;4936242;29;20051;-89
2023/07/24 10:34:20;;;;;;;4.33;3.60;;;;;;;19.25;100.00;100215.41;4935946;29;20423;-89
2023/07/24 10:36:45;;;;;;;4.50;3.90;;;;;;;19.19;100.00;100193.09;4935570;29;20283;-89
2023/07/24 10:39:15;;;;;;;3.87;3.50;;;;;;;19.32;100.00;100197.47;4935882;29;20099;-89
2023/07/24 10:41:40;;;;;;;5.25;3.47;;;;;;;19.29;100.00;100179.13;4936307;29;20590;-89
2023/07/24 10:44:06;;;;;;;3.90;3.20;;;;;;;19.47;100.00;100190.63;4935925;29;20106;-89
2023/07/24 10:46:36;;;;;;;4.37;3.30;;;;;;;19.73;100.00;100214.03;4935878;29;20491;-90
2023/07/24 10:49:02;;;;;;;4.13;3.42;;;;;;;19.87;100.00;100221.94;4935636;29;20043;-89
2023/07/24 10:51:29;;;;;;;3.90;3.35;;;;;;;20.01;100.00;100228.97;4937845;29;20083;-88
2023/07/24 10:53:54;;;;;;;3.28;2.97;;;;;;;20.25;100.00;100222.81;4942209;29;20027;-89
2023/07/24 10:56:20;;;;;;;4.47;3.40;;;;;;;20.71;100.00;100223.50;4935548;29;20034;-89
2023/07/24 10:58:45;;;;;;;3.60;3.30;;;;;;;20.93;100.00;100226.09;4938663;29;20038;-89
2023/07/24 11:01:11;;;;;;;4.28;3.10;;;;;;;21.24;100.00;100211.84;4943681;29;20023;-90
2023/07/24 11:03:38;;;;;;;4.17;3.07;;;;;;;21.37;100.00;100212.59;4939374;29;20019;-90
2023/07/24 11:06:04;;;;;;;3.78;3.35;;;;;;;21.41;100.00;100209.97;4939304;29;20023;-90
2023/07/24 11:08:30;;;;;;;3.90;3.60;;;;;;;21.45;100.00;100219.81;4939718;29;20032;-89
2023/07/24 11:10:57;;;;;;;3.80;3.50;;;;;;;21.24;100.00;100211.06;4938753;29;20024;-89